sensor_id;sensor_type;location;lat;lon;timestamp;pressure;altitude;pressure_sealevel;temperature;humidity
52591;BME280;38483;42.620;25.394;2022-12-17T00:00:07;97064.66;;;9.27;97.91
52591;BME280;38483;42.620;25.394;2022-12-17T00:02:59;97079.25;;;9.28;98.08
52591;BME280;38483;42.620;25.394;2022-12-17T00:05:45;97078.19;;;9.33;98.12
52591;BME280;38483;42.620;25.394;2022-12-17T00:08:30;97070.44;;;9.33;97.88
52591;BME280;38483;42.620;25.394;2022-12-17T00:11:17;97051.69;;;9.28;98.08
52591;BME280;38483;42.620;25.394;2022-12-17T00:14:13;97049.66;;;9.15;98.58
52591;BME280;38483;42.620;25.394;2022-12-17T00:16:58;97065.63;;;9.24;98.39
52591;BME280;38483;42.620;25.394;2022-12-17T00:19:44;97052.94;;;9.18;98.26
52591;BME280;38483;42.620;25.394;2022-12-17T00:22:32;97073.84;;;9.34;98.41
52591;BME280;38483;42.620;25.394;2022-12-17T00:25:18;97063.34;;;9.17;98.11
52591;BME280;38483;42.620;25.394;2022-12-17T00:28:08;97073.97;;;9.31;98.52
52591;BME280;38483;42.620;25.394;2022-12-17T00:30:54;97078.47;;;9.26;98.26
52591;BME280;38483;42.620;25.394;2022-12-17T00:33:40;97086.19;;;9.27;97.91
52591;BME280;38483;42.620;25.394;2022-12-17T00:36:26;97041.94;;;9.13;98.16
52591;BME280;38483;42.620;25.394;2022-12-17T00:39:11;97081.56;;;9.35;97.62
52591;BME280;38483;42.620;25.394;2022-12-17T00:41:57;97082.81;;;9.25;97.19
52591;BME280;38483;42.620;25.394;2022-12-17T00:44:42;97061.44;;;9.00;97.86
52591;BME280;38483;42.620;25.394;2022-12-17T00:47:29;97063.72;;;8.86;98.77
52591;BME280;38483;42.620;25.394;2022-12-17T00:50:15;97063.00;;;9.04;98.72
52591;BME280;38483;42.620;25.394;2022-12-17T00:53:01;97062.63;;;9.13;98.64
52591;BME280;38483;42.620;25.394;2022-12-17T00:55:46;97062.50;;;9.16;98.26
52591;BME280;38483;42.620;25.394;2022-12-17T00:58:31;97057.19;;;9.19;97.96
52591;BME280;38483;42.620;25.394;2022-12-17T01:01:17;97053.81;;;9.19;97.72
52591;BME280;38483;42.620;25.394;2022-12-17T01:04:03;97065.25;;;9.33;97.62
52591;BME280;38483;42.620;25.394;2022-12-17T01:06:48;97066.81;;;9.37;97.37
52591;BME280;38483;42.620;25.394;2022-12-17T01:09:33;97066.22;;;9.31;96.89
52591;BME280;38483;42.620;25.394;2022-12-17T01:12:18;97069.69;;;9.30;96.69
52591;BME280;38483;42.620;25.394;2022-12-17T01:15:04;97065.50;;;9.27;96.92
52591;BME280;38483;42.620;25.394;2022-12-17T01:17:49;97067.19;;;9.28;96.57
52591;BME280;38483;42.620;25.394;2022-12-17T01:20:36;97068.81;;;9.09;96.62
52591;BME280;38483;42.620;25.394;2022-12-17T01:23:21;97071.25;;;8.90;97.47
52591;BME280;38483;42.620;25.394;2022-12-17T01:26:07;97065.50;;;9.06;96.88
52591;BME280;38483;42.620;25.394;2022-12-17T01:28:52;97067.63;;;8.96;96.56
52591;BME280;38483;42.620;25.394;2022-12-17T01:31:39;97064.66;;;8.83;97.91
52591;BME280;38483;42.620;25.394;2022-12-17T01:34:24;97057.19;;;8.76;97.74
52591;BME280;38483;42.620;25.394;2022-12-17T01:37:10;97061.84;;;8.89;98.65
52591;BME280;38483;42.620;25.394;2022-12-17T01:39:55;97071.41;;;8.87;98.82
52591;BME280;38483;42.620;25.394;2022-12-17T01:42:41;97061.44;;;9.00;98.53
52591;BME280;38483;42.620;25.394;2022-12-17T01:45:27;97060.69;;;8.75;97.64
52591;BME280;38483;42.620;25.394;2022-12-17T01:48:41;97058.53;;;8.64;97.52
52591;BME280;38483;42.620;25.394;2022-12-17T01:51:28;97054.06;;;8.68;98.16
52591;BME280;38483;42.620;25.394;2022-12-17T01:54:16;97067.69;;;8.50;98.39
52591;BME280;38483;42.620;25.394;2022-12-17T01:57:01;97056.72;;;8.43;97.72
52591;BME280;38483;42.620;25.394;2022-12-17T01:59:59;97050.78;;;8.41;98.99
52591;BME280;38483;42.620;25.394;2022-12-17T02:02:45;97059.84;;;8.53;98.35
52591;BME280;38483;42.620;25.394;2022-12-17T02:05:44;97053.53;;;8.60;98.36
52591;BME280;38483;42.620;25.394;2022-12-17T02:11:52;97061.44;;;8.55;97.77
52591;BME280;38483;42.620;25.394;2022-12-17T02:14:44;97062.50;;;8.50;97.93
52591;BME280;38483;42.620;25.394;2022-12-17T02:17:39;97060.22;;;8.42;97.58
52591;BME280;38483;42.620;25.394;2022-12-17T02:20:41;97057.31;;;8.28;98.03
52591;BME280;38483;42.620;25.394;2022-12-17T02:23:35;97050.22;;;8.33;97.85
52591;BME280;38483;42.620;25.394;2022-12-17T02:26:37;97063.44;;;8.24;98.11
52591;BME280;38483;42.620;25.394;2022-12-17T02:29:25;97062.03;;;8.15;98.71
52591;BME280;38483;42.620;25.394;2022-12-17T02:32:12;97050.94;;;8.13;99.17
52591;BME280;38483;42.620;25.394;2022-12-17T02:35:01;97048.28;;;8.15;98.92
52591;BME280;38483;42.620;25.394;2022-12-17T02:37:51;97048.81;;;8.01;99.26
52591;BME280;38483;42.620;25.394;2022-12-17T02:40:36;97051.19;;;8.06;99.12
52591;BME280;38483;42.620;25.394;2022-12-17T02:43:22;97050.19;;;8.10;99.31
52591;BME280;38483;42.620;25.394;2022-12-17T02:46:09;97043.44;;;8.07;98.94
52591;BME280;38483;42.620;25.394;2022-12-17T02:48:54;97043.34;;;8.09;99.29
52591;BME280;38483;42.620;25.394;2022-12-17T02:51:42;97048.34;;;8.13;99.63
52591;BME280;38483;42.620;25.394;2022-12-17T02:54:32;97044.66;;;8.20;99.50
52591;BME280;38483;42.620;25.394;2022-12-17T02:57:18;97047.41;;;8.16;99.65
52591;BME280;38483;42.620;25.394;2022-12-17T03:00:10;97044.84;;;8.16;100.00
52591;BME280;38483;42.620;25.394;2022-12-17T03:03:09;97042.41;;;8.11;99.42
52591;BME280;38483;42.620;25.394;2022-12-17T03:05:54;97050.97;;;8.12;99.83
52591;BME280;38483;42.620;25.394;2022-12-17T03:08:40;97048.09;;;7.96;100.00
52591;BME280;38483;42.620;25.394;2022-12-17T03:11:27;97047.16;;;7.99;100.00
52591;BME280;38483;42.620;25.394;2022-12-17T03:14:12;97052.97;;;8.05;100.00
52591;BME280;38483;42.620;25.394;2022-12-17T03:16:58;97046.78;;;8.09;100.00
52591;BME280;38483;42.620;25.394;2022-12-17T03:19:45;97046.00;;;8.07;100.00
52591;BME280;38483;42.620;25.394;2022-12-17T03:22:30;97046.50;;;8.17;100.00
52591;BME280;38483;42.620;25.394;2022-12-17T03:25:15;97040.63;;;8.13;99.70
52591;BME280;38483;42.620;25.394;2022-12-17T03:28:08;97039.94;;;8.08;99.58
52591;BME280;38483;42.620;25.394;2022-12-17T03:30:56;97039.06;;;8.09;100.00
52591;BME280;38483;42.620;25.394;2022-12-17T03:33:41;97040.72;;;8.10;99.61
52591;BME280;38483;42.620;25.394;2022-12-17T03:36:26;97035.13;;;7.99;99.72
52591;BME280;38483;42.620;25.394;2022-12-17T03:39:12;97044.47;;;8.02;100.00
52591;BME280;38483;42.620;25.394;2022-12-17T03:41:57;97037.56;;;8.02;100.00
52591;BME280;38483;42.620;25.394;2022-12-17T03:44:43;97035.44;;;7.90;100.00
52591;BME280;38483;42.620;25.394;2022-12-17T03:47:29;97034.88;;;7.82;100.00
52591;BME280;38483;42.620;25.394;2022-12-17T03:50:34;97033.44;;;7.98;100.00
52591;BME280;38483;42.620;25.394;2022-12-17T03:53:19;97028.28;;;7.98;99.61
52591;BME280;38483;42.620;25.394;2022-12-17T03:56:04;97022.16;;;8.01;100.00
52591;BME280;38483;42.620;25.394;2022-12-17T03:58:49;97029.97;;;7.99;99.99
52591;BME280;38483;42.620;25.394;2022-12-17T04:01:34;97027.16;;;8.05;100.00
52591;BME280;38483;42.620;25.394;2022-12-17T04:04:20;97031.78;;;7.96;99.69
52591;BME280;38483;42.620;25.394;2022-12-17T04:07:05;97020.91;;;7.88;99.46
52591;BME280;38483;42.620;25.394;2022-12-17T04:09:53;97025.13;;;7.90;99.94
52591;BME280;38483;42.620;25.394;2022-12-17T04:12:39;97017.75;;;7.80;100.00
52591;BME280;38483;42.620;25.394;2022-12-17T04:15:24;97016.75;;;7.84;100.00
52591;BME280;38483;42.620;25.394;2022-12-17T04:18:09;97018.63;;;7.80;100.00
52591;BME280;38483;42.620;25.394;2022-12-17T04:20:55;97004.41;;;7.69;100.00
52591;BME280;38483;42.620;25.394;2022-12-17T04:23:40;97004.63;;;7.63;100.00
52591;BME280;38483;42.620;25.394;2022-12-17T04:26:25;96996.16;;;7.59;100.00
52591;BME280;38483;42.620;25.394;2022-12-17T04:29:11;96985.19;;;7.77;100.00
52591;BME280;38483;42.620;25.394;2022-12-17T04:31:56;96989.53;;;7.77;100.00
52591;BME280;38483;42.620;25.394;2022-12-17T04:34:41;96978.16;;;7.82;100.00
52591;BME280;38483;42.620;25.394;2022-12-17T04:37:28;96987.13;;;7.72;100.00
52591;BME280;38483;42.620;25.394;2022-12-17T04:40:14;96989.91;;;7.66;100.00
52591;BME280;38483;42.620;25.394;2022-12-17T04:43:08;96978.69;;;7.67;100.00
52591;BME280;38483;42.620;25.394;2022-12-17T04:45:54;96983.19;;;7.62;100.00
52591;BME280;38483;42.620;25.394;2022-12-17T04:48:39;96974.09;;;7.52;100.00
52591;BME280;38483;42.620;25.394;2022-12-17T04:51:25;96974.31;;;7.69;100.00
52591;BME280;38483;42.620;25.394;2022-12-17T04:54:10;96978.91;;;7.61;100.00
52591;BME280;38483;42.620;25.394;2022-12-17T04:56:55;96983.84;;;7.67;100.00
52591;BME280;38483;42.620;25.394;2022-12-17T04:59:41;96993.38;;;7.65;100.00
52591;BME280;38483;42.620;25.394;2022-12-17T05:02:26;96997.50;;;7.69;100.00
52591;BME280;38483;42.620;25.394;2022-12-17T05:05:12;97003.75;;;7.64;99.93
52591;BME280;38483;42.620;25.394;2022-12-17T05:07:57;97004.59;;;7.64;100.00
52591;BME280;38483;42.620;25.394;2022-12-17T05:10:43;97016.69;;;7.62;100.00
52591;BME280;38483;42.620;25.394;2022-12-17T05:13:28;97015.19;;;7.55;100.00
52591;BME280;38483;42.620;25.394;2022-12-17T05:16:14;97026.44;;;7.53;100.00
52591;BME280;38483;42.620;25.394;2022-12-17T05:19:01;97023.94;;;7.51;100.00
52591;BME280;38483;42.620;25.394;2022-12-17T05:21:54;97016.13;;;7.53;100.00
52591;BME280;38483;42.620;25.394;2022-12-17T05:25:02;97011.75;;;7.30;100.00
52591;BME280;38483;42.620;25.394;2022-12-17T05:28:11;97023.19;;;7.23;100.00
52591;BME280;38483;42.620;25.394;2022-12-17T05:30:56;97021.34;;;7.26;100.00
52591;BME280;38483;42.620;25.394;2022-12-17T05:33:42;97017.91;;;7.26;100.00
52591;BME280;38483;42.620;25.394;2022-12-17T05:36:27;97019.28;;;7.36;100.00
52591;BME280;38483;42.620;25.394;2022-12-17T05:39:12;97022.56;;;7.41;100.00
52591;BME280;38483;42.620;25.394;2022-12-17T05:41:57;97036.03;;;7.49;100.00
52591;BME280;38483;42.620;25.394;2022-12-17T05:44:43;97042.69;;;7.55;100.00
52591;BME280;38483;42.620;25.394;2022-12-17T05:47:29;97038.38;;;7.55;100.00
52591;BME280;38483;42.620;25.394;2022-12-17T05:50:14;97030.16;;;7.69;100.00
52591;BME280;38483;42.620;25.394;2022-12-17T05:53:02;97044.75;;;7.70;100.00
52591;BME280;38483;42.620;25.394;2022-12-17T05:55:49;97042.88;;;7.75;99.96
52591;BME280;38483;42.620;25.394;2022-12-17T05:58:34;97046.03;;;7.83;99.63
52591;BME280;38483;42.620;25.394;2022-12-17T06:01:19;97031.50;;;7.80;99.49
52591;BME280;38483;42.620;25.394;2022-12-17T06:04:05;97039.19;;;7.82;99.63
52591;BME280;38483;42.620;25.394;2022-12-17T06:06:50;97047.41;;;7.68;99.84
52591;BME280;38483;42.620;25.394;2022-12-17T06:09:43;97050.75;;;7.70;100.00
52591;BME280;38483;42.620;25.394;2022-12-17T06:12:28;97052.63;;;7.65;99.96
52591;BME280;38483;42.620;25.394;2022-12-17T06:15:13;97055.28;;;7.64;100.00
52591;BME280;38483;42.620;25.394;2022-12-17T06:17:59;97066.22;;;7.70;100.00
52591;BME280;38483;42.620;25.394;2022-12-17T06:20:44;97073.59;;;7.81;100.00
52591;BME280;38483;42.620;25.394;2022-12-17T06:23:30;97067.59;;;7.80;100.00
52591;BME280;38483;42.620;25.394;2022-12-17T06:26:15;97066.94;;;7.74;100.00
52591;BME280;38483;42.620;25.394;2022-12-17T06:29:00;97072.53;;;7.86;100.00
52591;BME280;38483;42.620;25.394;2022-12-17T06:31:45;97038.31;;;7.58;100.00
52591;BME280;38483;42.620;25.394;2022-12-17T06:34:31;97071.25;;;7.98;99.74
52591;BME280;38483;42.620;25.394;2022-12-17T06:37:16;97082.53;;;7.95;99.69
52591;BME280;38483;42.620;25.394;2022-12-17T06:40:01;97091.16;;;7.94;99.96
52591;BME280;38483;42.620;25.394;2022-12-17T06:42:53;97088.84;;;7.87;99.59
52591;BME280;38483;42.620;25.394;2022-12-17T06:45:38;97101.16;;;7.79;99.31
52591;BME280;38483;42.620;25.394;2022-12-17T06:48:24;97101.97;;;7.79;100.00
52591;BME280;38483;42.620;25.394;2022-12-17T06:51:09;97087.88;;;7.89;100.00
52591;BME280;38483;42.620;25.394;2022-12-17T06:53:54;97091.06;;;7.97;99.46
52591;BME280;38483;42.620;25.394;2022-12-17T06:56:40;97102.34;;;7.93;99.71
52591;BME280;38483;42.620;25.394;2022-12-17T06:59:25;97100.75;;;8.14;99.57
52591;BME280;38483;42.620;25.394;2022-12-17T07:02:10;97101.50;;;8.17;98.45
52591;BME280;38483;42.620;25.394;2022-12-17T07:04:56;97100.50;;;8.21;97.83
52591;BME280;38483;42.620;25.394;2022-12-17T07:07:41;97083.06;;;8.30;97.74
52591;BME280;38483;42.620;25.394;2022-12-17T07:10:27;97085.13;;;8.43;96.86
52591;BME280;38483;42.620;25.394;2022-12-17T07:13:12;97074.34;;;8.55;96.79
52591;BME280;38483;42.620;25.394;2022-12-17T07:15:58;97069.47;;;8.71;96.43
52591;BME280;38483;42.620;25.394;2022-12-17T07:18:43;97064.13;;;8.75;96.26
52591;BME280;38483;42.620;25.394;2022-12-17T07:21:28;97064.66;;;8.83;95.72
52591;BME280;38483;42.620;25.394;2022-12-17T07:24:13;97066.31;;;8.86;95.41
52591;BME280;38483;42.620;25.394;2022-12-17T07:27:03;97061.53;;;8.97;95.18
52591;BME280;38483;42.620;25.394;2022-12-17T07:29:51;97077.88;;;8.97;94.84
52591;BME280;38483;42.620;25.394;2022-12-17T07:32:37;97072.72;;;8.97;94.65
52591;BME280;38483;42.620;25.394;2022-12-17T07:35:22;97073.91;;;8.89;94.81
52591;BME280;38483;42.620;25.394;2022-12-17T07:38:08;97066.59;;;9.00;95.24
52591;BME280;38483;42.620;25.394;2022-12-17T07:40:57;97061.91;;;8.88;94.89
52591;BME280;38483;42.620;25.394;2022-12-17T07:43:42;97078.47;;;8.82;95.49
52591;BME280;38483;42.620;25.394;2022-12-17T07:46:28;97085.78;;;8.71;96.77
52591;BME280;38483;42.620;25.394;2022-12-17T07:49:13;97095.38;;;8.68;96.14
52591;BME280;38483;42.620;25.394;2022-12-17T07:51:59;97093.66;;;8.68;96.84
52591;BME280;38483;42.620;25.394;2022-12-17T07:54:46;97102.25;;;8.69;96.86
52591;BME280;38483;42.620;25.394;2022-12-17T07:57:32;97099.59;;;8.70;96.56
52591;BME280;38483;42.620;25.394;2022-12-17T08:00:18;97095.59;;;8.62;96.62
52591;BME280;38483;42.620;25.394;2022-12-17T08:03:03;97091.19;;;8.65;96.88
52591;BME280;38483;42.620;25.394;2022-12-17T08:05:49;97097.06;;;8.69;96.80
52591;BME280;38483;42.620;25.394;2022-12-17T08:08:34;97102.47;;;8.63;97.08
52591;BME280;38483;42.620;25.394;2022-12-17T08:11:19;97110.75;;;8.71;97.54
52591;BME280;38483;42.620;25.394;2022-12-17T08:14:05;97111.31;;;8.79;96.81
52591;BME280;38483;42.620;25.394;2022-12-17T08:16:51;97126.75;;;8.80;96.57
52591;BME280;38483;42.620;25.394;2022-12-17T08:19:36;97132.53;;;8.87;97.03
52591;BME280;38483;42.620;25.394;2022-12-17T08:22:21;97135.78;;;8.92;96.88
52591;BME280;38483;42.620;25.394;2022-12-17T08:25:10;97131.44;;;8.92;97.12
52591;BME280;38483;42.620;25.394;2022-12-17T08:27:59;97137.22;;;8.99;97.11
52591;BME280;38483;42.620;25.394;2022-12-17T08:31:04;97142.13;;;9.07;97.20
52591;BME280;38483;42.620;25.394;2022-12-17T08:33:50;97144.09;;;9.22;96.89
52591;BME280;38483;42.620;25.394;2022-12-17T08:36:35;97153.22;;;9.30;96.62
52591;BME280;38483;42.620;25.394;2022-12-17T08:39:21;97139.97;;;9.39;96.29
52591;BME280;38483;42.620;25.394;2022-12-17T08:42:06;97138.69;;;9.49;95.29
52591;BME280;38483;42.620;25.394;2022-12-17T08:44:51;97124.84;;;9.72;95.47
52591;BME280;38483;42.620;25.394;2022-12-17T08:47:37;97128.91;;;9.77;95.03
52591;BME280;38483;42.620;25.394;2022-12-17T08:50:56;97131.50;;;9.98;95.06
52591;BME280;38483;42.620;25.394;2022-12-17T08:53:41;97132.75;;;10.09;94.23
52591;BME280;38483;42.620;25.394;2022-12-17T08:56:27;97128.97;;;10.18;94.24
52591;BME280;38483;42.620;25.394;2022-12-17T08:59:12;97119.69;;;10.12;93.87
52591;BME280;38483;42.620;25.394;2022-12-17T09:01:57;97125.97;;;10.27;93.77
52591;BME280;38483;42.620;25.394;2022-12-17T09:04:43;97128.28;;;10.33;93.80
52591;BME280;38483;42.620;25.394;2022-12-17T09:07:28;97122.31;;;10.51;93.55
52591;BME280;38483;42.620;25.394;2022-12-17T09:10:14;97129.88;;;10.55;93.23
52591;BME280;38483;42.620;25.394;2022-12-17T09:13:00;97120.84;;;10.64;92.89
52591;BME280;38483;42.620;25.394;2022-12-17T09:15:50;97129.13;;;10.72;92.86
52591;BME280;38483;42.620;25.394;2022-12-17T09:18:35;97125.09;;;10.85;92.72
52591;BME280;38483;42.620;25.394;2022-12-17T09:21:21;97126.41;;;10.75;92.50
52591;BME280;38483;42.620;25.394;2022-12-17T09:24:06;97132.56;;;10.91;92.77
52591;BME280;38483;42.620;25.394;2022-12-17T09:26:51;97126.13;;;11.00;91.62
52591;BME280;38483;42.620;25.394;2022-12-17T09:29:36;97137.19;;;11.03;91.86
52591;BME280;38483;42.620;25.394;2022-12-17T09:32:22;97133.13;;;10.98;92.49
52591;BME280;38483;42.620;25.394;2022-12-17T09:35:07;97136.13;;;11.07;92.05
52591;BME280;38483;42.620;25.394;2022-12-17T09:37:54;97109.63;;;11.19;92.21
52591;BME280;38483;42.620;25.394;2022-12-17T09:40:41;97102.41;;;11.26;91.90
52591;BME280;38483;42.620;25.394;2022-12-17T09:46:44;97126.13;;;11.18;91.42
52591;BME280;38483;42.620;25.394;2022-12-17T09:49:34;97120.50;;;11.27;92.52
52591;BME280;38483;42.620;25.394;2022-12-17T09:52:52;97122.88;;;11.32;91.59
52591;BME280;38483;42.620;25.394;2022-12-17T09:55:58;97119.19;;;11.55;91.42
52591;BME280;38483;42.620;25.394;2022-12-17T09:58:44;97107.59;;;11.62;91.20
52591;BME280;38483;42.620;25.394;2022-12-17T10:01:49;97099.25;;;11.74;90.80
52591;BME280;38483;42.620;25.394;2022-12-17T10:04:41;97107.94;;;11.73;90.80
52591;BME280;38483;42.620;25.394;2022-12-17T10:07:32;97093.38;;;12.04;90.54
52591;BME280;38483;42.620;25.394;2022-12-17T10:10:21;97087.31;;;12.21;89.86
52591;BME280;38483;42.620;25.394;2022-12-17T10:13:17;97075.50;;;12.15;89.65
52591;BME280;38483;42.620;25.394;2022-12-17T10:22:07;97065.81;;;12.67;88.66
52591;BME280;38483;42.620;25.394;2022-12-17T10:24:52;97062.13;;;12.71;88.83
52591;BME280;38483;42.620;25.394;2022-12-17T10:27:38;97044.94;;;12.69;88.60
52591;BME280;38483;42.620;25.394;2022-12-17T10:30:23;97051.22;;;12.65;89.15
52591;BME280;38483;42.620;25.394;2022-12-17T10:33:14;97041.09;;;12.91;89.03
52591;BME280;38483;42.620;25.394;2022-12-17T10:36:02;97045.94;;;12.97;89.01
52591;BME280;38483;42.620;25.394;2022-12-17T10:38:53;97026.50;;;13.04;88.56
52591;BME280;38483;42.620;25.394;2022-12-17T10:41:41;97025.66;;;13.20;87.97
52591;BME280;38483;42.620;25.394;2022-12-17T10:47:15;97029.81;;;13.38;87.64
52591;BME280;38483;42.620;25.394;2022-12-17T10:50:11;97042.47;;;13.44;88.25
52591;BME280;38483;42.620;25.394;2022-12-17T10:52:57;97051.81;;;13.32;88.86
52591;BME280;38483;42.620;25.394;2022-12-17T10:55:47;97047.13;;;13.23;89.24
52591;BME280;38483;42.620;25.394;2022-12-17T10:58:34;97065.34;;;13.07;90.52
52591;BME280;38483;42.620;25.394;2022-12-17T11:01:21;97062.53;;;12.95;91.08
52591;BME280;38483;42.620;25.394;2022-12-17T11:04:28;97047.31;;;13.04;91.13
52591;BME280;38483;42.620;25.394;2022-12-17T11:07:16;97055.25;;;13.01;90.21
52591;BME280;38483;42.620;25.394;2022-12-17T11:10:04;97060.78;;;12.80;91.45
52591;BME280;38483;42.620;25.394;2022-12-17T11:12:51;97044.09;;;12.84;91.81
52591;BME280;38483;42.620;25.394;2022-12-17T11:15:56;97047.78;;;12.95;91.05
52591;BME280;38483;42.620;25.394;2022-12-17T11:21:41;97049.13;;;13.34;89.68
52591;BME280;38483;42.620;25.394;2022-12-17T11:24:39;97062.19;;;13.48;88.96
52591;BME280;38483;42.620;25.394;2022-12-17T11:27:31;97055.13;;;13.50;88.55
52591;BME280;38483;42.620;25.394;2022-12-17T11:30:19;97053.28;;;13.52;88.83
52591;BME280;38483;42.620;25.394;2022-12-17T11:33:12;97070.41;;;13.56;89.42
52591;BME280;38483;42.620;25.394;2022-12-17T11:36:14;97057.78;;;13.64;88.69
52591;BME280;38483;42.620;25.394;2022-12-17T11:42:00;97041.59;;;13.88;87.40
52591;BME280;38483;42.620;25.394;2022-12-17T11:44:54;97032.09;;;14.02;86.92
52591;BME280;38483;42.620;25.394;2022-12-17T11:47:54;97031.38;;;14.00;86.81
52591;BME280;38483;42.620;25.394;2022-12-17T12:00:11;97063.31;;;14.17;86.21
52591;BME280;38483;42.620;25.394;2022-12-17T12:03:13;97061.06;;;14.25;86.10
52591;BME280;38483;42.620;25.394;2022-12-17T12:06:09;97052.50;;;14.23;85.84
52591;BME280;38483;42.620;25.394;2022-12-17T12:09:02;97049.34;;;14.18;85.98
52591;BME280;38483;42.620;25.394;2022-12-17T12:11:53;97050.09;;;14.20;86.11
52591;BME280;38483;42.620;25.394;2022-12-17T12:14:50;97042.53;;;14.16;86.19
52591;BME280;38483;42.620;25.394;2022-12-17T12:17:53;97043.47;;;14.15;86.33
52591;BME280;38483;42.620;25.394;2022-12-17T12:21:01;97038.75;;;14.07;87.03
52591;BME280;38483;42.620;25.394;2022-12-17T12:27:24;97053.88;;;13.86;87.13
52591;BME280;38483;42.620;25.394;2022-12-17T12:30:20;97057.59;;;13.67;88.01
52591;BME280;38483;42.620;25.394;2022-12-17T12:36:03;97106.34;;;13.79;88.10
52591;BME280;38483;42.620;25.394;2022-12-17T12:38:54;97117.84;;;13.91;87.99
52591;BME280;38483;42.620;25.394;2022-12-17T12:44:42;97130.91;;;13.89;88.36
52591;BME280;38483;42.620;25.394;2022-12-17T12:47:45;97134.69;;;13.99;87.96
52591;BME280;38483;42.620;25.394;2022-12-17T12:50:49;97116.94;;;14.06;88.03
52591;BME280;38483;42.620;25.394;2022-12-17T12:53:38;97083.53;;;13.98;87.29
52591;BME280;38483;42.620;25.394;2022-12-17T12:56:35;97098.28;;;14.13;87.70
52591;BME280;38483;42.620;25.394;2022-12-17T12:59:34;97098.19;;;14.15;87.18
52591;BME280;38483;42.620;25.394;2022-12-17T13:02:29;97096.69;;;14.25;87.26
52591;BME280;38483;42.620;25.394;2022-12-17T13:08:18;97099.91;;;14.30;86.63
52591;BME280;38483;42.620;25.394;2022-12-17T13:10:46;97084.56;;;14.39;86.55
52591;BME280;38483;42.620;25.394;2022-12-17T13:15:49;97099.06;;;14.29;87.47
52591;BME280;38483;42.620;25.394;2022-12-17T13:20:57;97088.66;;;14.29;87.46
52591;BME280;38483;42.620;25.394;2022-12-17T13:29:11;97102.84;;;14.24;87.37
52591;BME280;38483;42.620;25.394;2022-12-17T13:31:57;97100.41;;;14.21;87.34
52591;BME280;38483;42.620;25.394;2022-12-17T13:34:38;97097.53;;;14.11;87.96
52591;BME280;38483;42.620;25.394;2022-12-17T13:42:01;97087.63;;;14.02;88.33
52591;BME280;38483;42.620;25.394;2022-12-17T13:44:37;97094.78;;;13.99;89.21
52591;BME280;38483;42.620;25.394;2022-12-17T13:47:16;97098.31;;;13.98;89.16
52591;BME280;38483;42.620;25.394;2022-12-17T13:49:49;97103.34;;;14.01;89.15
52591;BME280;38483;42.620;25.394;2022-12-17T13:52:35;97100.28;;;13.94;89.39
52591;BME280;38483;42.620;25.394;2022-12-17T13:55:07;97108.06;;;13.94;89.60
52591;BME280;38483;42.620;25.394;2022-12-17T13:57:34;97106.97;;;13.98;90.02
52591;BME280;38483;42.620;25.394;2022-12-17T14:00:02;97115.88;;;13.94;90.74
52591;BME280;38483;42.620;25.394;2022-12-17T14:02:38;97118.31;;;13.97;90.57
52591;BME280;38483;42.620;25.394;2022-12-17T14:05:05;97111.25;;;13.99;90.33
52591;BME280;38483;42.620;25.394;2022-12-17T14:07:34;97115.88;;;13.94;90.07
52591;BME280;38483;42.620;25.394;2022-12-17T14:10:03;97125.47;;;13.94;90.02
52591;BME280;38483;42.620;25.394;2022-12-17T14:12:31;97124.91;;;13.88;90.86
52591;BME280;38483;42.620;25.394;2022-12-17T14:15:01;97121.53;;;13.86;91.03
52591;BME280;38483;42.620;25.394;2022-12-17T14:17:46;97122.72;;;13.81;90.98
52591;BME280;38483;42.620;25.394;2022-12-17T14:20:15;97120.06;;;13.67;91.44
52591;BME280;38483;42.620;25.394;2022-12-17T14:22:43;97112.09;;;13.70;91.55
52591;BME280;38483;42.620;25.394;2022-12-17T14:25:23;97108.66;;;13.69;91.87
52591;BME280;38483;42.620;25.394;2022-12-17T14:30:20;97120.66;;;13.56;91.94
52591;BME280;38483;42.620;25.394;2022-12-17T14:32:47;97138.38;;;13.50;92.55
52591;BME280;38483;42.620;25.394;2022-12-17T14:35:27;97139.13;;;13.52;92.63
52591;BME280;38483;42.620;25.394;2022-12-17T14:37:54;97152.94;;;13.54;92.15
52591;BME280;38483;42.620;25.394;2022-12-17T14:40:23;97147.88;;;13.51;92.26
52591;BME280;38483;42.620;25.394;2022-12-17T14:42:51;97148.97;;;13.47;92.31
52591;BME280;38483;42.620;25.394;2022-12-17T14:45:20;97138.16;;;13.39;92.58
52591;BME280;38483;42.620;25.394;2022-12-17T14:47:55;97147.06;;;13.35;92.85
52591;BME280;38483;42.620;25.394;2022-12-17T14:52:53;97154.25;;;13.30;93.26
52591;BME280;38483;42.620;25.394;2022-12-17T14:55:30;97155.94;;;13.31;93.63
52591;BME280;38483;42.620;25.394;2022-12-17T14:58:08;97155.75;;;13.34;93.12
52591;BME280;38483;42.620;25.394;2022-12-17T15:00:38;97163.56;;;13.34;93.94
52591;BME280;38483;42.620;25.394;2022-12-17T15:03:05;97163.91;;;13.28;93.53
52591;BME280;38483;42.620;25.394;2022-12-17T15:05:35;97174.63;;;13.22;93.75
52591;BME280;38483;42.620;25.394;2022-12-17T15:08:03;97183.38;;;13.21;93.60
52591;BME280;38483;42.620;25.394;2022-12-17T15:10:30;97181.59;;;13.21;93.73
52591;BME280;38483;42.620;25.394;2022-12-17T15:12:56;97183.53;;;13.18;93.85
52591;BME280;38483;42.620;25.394;2022-12-17T15:15:23;97180.94;;;13.18;93.83
52591;BME280;38483;42.620;25.394;2022-12-17T15:17:50;97182.00;;;13.14;93.51
52591;BME280;38483;42.620;25.394;2022-12-17T15:20:18;97186.38;;;13.13;93.56
52591;BME280;38483;42.620;25.394;2022-12-17T15:22:45;97180.50;;;13.10;93.19
52591;BME280;38483;42.620;25.394;2022-12-17T15:25:13;97188.31;;;12.92;93.96
52591;BME280;38483;42.620;25.394;2022-12-17T15:27:40;97200.56;;;12.90;93.99
52591;BME280;38483;42.620;25.394;2022-12-17T15:30:08;97203.31;;;12.87;93.58
52591;BME280;38483;42.620;25.394;2022-12-17T15:32:35;97198.88;;;12.89;94.52
52591;BME280;38483;42.620;25.394;2022-12-17T15:35:02;97198.19;;;12.86;94.95